METAR Data
IDs: Format: Raw Decoded Include TAF

Data at: 2047 UTC 02 Aug 2021

FALA 022000Z AUTO VRB02KT //// // ////// 14/M07 Q1030